Terminal Aerodrome Forecast
Issued by NWS

Home | Current Version | Previous Version | Graphics & Text | Print | Product List | Glossary On
Versions: 1 2 3 4 5 6 7 8 9 10 11 12 13 14 15 16 17 18
705
FTUS43 KUNR 201122
TAFGCC
TAF
KGCC 201122Z 2012/2112 16015KT P6SM BKN200
     FM201600 17017G25KT P6SM BKN150
     FM210000 18015KT P6SM VCTS BKN080CB
     FM210600 23009KT P6SM SCT100=

USA.gov is the U.S. government's official web portal to all federal, state and local government web resources and services.